Historyczne dane pomiarowe

Dodano dane terminowe – wersja testowa.

Dane z okresu 1951-2019

Wersja bazy: 1.34 [2019-03-16, lista zmian], aktualizacja planowana na 2019-04-15

Dane meteo z obszaru Polski uzyskane na podstawie danych udostępnionych przez Instytut Meteorologii i Gospodarki Wodnej – Państwowy Instytut Badawczy.

 

Wybierz Datę:    

       

TemperaturaWilgotnośćWiatrCiśnienieOpadyŚniegCzas trwania zjawisk
 Stacja t tx tn tng RH VA  wxwx mslp ppp RRR   cm mm wxwxwxwxwxwxwx
1994-08-14 13.9 18.6 6.1- 81.8- 7.3 1.7---- 0.8------------
1994-08-13 17.4 26.0 9.9- 89.0- 6.7 1.3---- 0.4------------
1994-08-12 16.3 22.3 7.3- 84.5- 7.7 1.7---- 2.0------------
1994-08-11 16.3 24.2 7.4- 64.5- 6.7 1.0---- 0.0------------
1994-08-10 18.0 27.2 8.9- 65.5- 6.3 0.3---- 0.0------------
1994-08-09 17.0 26.3 8.4- 73.8- 6.3 0.7---- 0.0------------
1994-08-08 22.8 30.8 12.0- 77.0- 5.7 0.3---- 0.0------------
1994-08-07 24.8 30.5 16.8- 81.5- 6.0 0.3---- 0.0------------
1994-08-06 26.9 30.6 20.1- 76.0- 5.7 0.3---- 0.0------------
1994-08-05 28.0 36.8 18.3- 66.0- 6.0 0.3---- 0.0------------
1994-08-04 21.7 28.5 12.0- 74.8- 6.3 0.3---- 0.0------------
1994-08-03 23.2 29.3 17.8- 83.3- 6.7 1.7---- 0.0------------
1994-08-02 27.8 33.1 18.5- 81.8- 7.0 1.3---- 0.0------------
1994-08-01 31.1 36.2 19.8- 62.5- 5.0 0.3---- 0.0------------
1994-07-31 30.5 36.5 25.4- 52.3- 5.7 0.7---- 0.0------------
1994-07-30 26.2 34.1 19.4- 79.5- 5.7 1.0---- 0.0------------
1994-07-29 30.2 35.3 24.4- 64.3- 5.7 0.3---- 0.0------------
1994-07-28 25.8 33.2 18.2- 69.8- 6.0 0.3---- 0.0------------
1994-07-27 33.0 34.8 30.4- 63.8- 6.0 1.3---- 0.0------------
1994-07-26 31.2 35.4 23.5- 56.3- 6.0 0.7---- 0.0------------
1994-07-25 26.6 35.2 18.3- 60.5- 5.3 0.7---- 0.0------------
1994-07-24 23.1 31.2 16.2- 59.0- 5.3 0.7---- 0.0------------
1994-07-23 22.8 32.2 16.1- 59.8- 5.3 0.7---- 0.0------------
1994-07-22 21.0 26.3 15.2- 56.0- 5.7 0.7---- 0.0------------
1994-07-21 21.1 26.2 14.1- 64.0- 5.3 0.3---- 0.0------------
1994-07-20 19.2 24.5 13.5- 66.8- 6.0 0.7---- 0.0------------
1994-07-19 19.6 24.3 13.3- 63.3- 6.0 1.0---- 0.0------------
1994-07-18 18.7 23.5 10.7- 72.3- 6.0 1.7---- 0.0------------
1994-07-17 19.4 22.8 17.0- 75.5- 6.3 1.0---- 0.0------------
1994-07-16 21.5 26.1 18.9- 77.0- 6.0 0.7---- 0.0------------
1994-07-15 28.1 32.8 23.8- 74.0- 7.7 2.0---- 2.5------------
1994-07-14 27.6 31.0 22.5- 62.5- 6.0 1.0---- 0.0------------
1994-07-13 27.2 33.1 23.3- 56.8- 6.0 0.3---- 0.0------------
1994-07-12 25.5 32.0 17.0- 55.8- 6.0 0.3---- 0.0------------
1994-07-11 22.0 29.3 11.4- 73.3- 6.0 1.0---- 0.0------------
1994-07-10 17.8 22.0 12.6- 75.8- 6.7 1.3---- 0.0------------
1994-07-09 17.7 23.5 11.7- 76.3- 5.7 1.0---- 0.0------------
1994-07-08 17.9 23.2 11.4- 75.8- 6.3 1.3---- 0.0------------
1994-07-07 17.1 24.5 10.0- 69.0- 5.3 1.3---- 0.0------------
1994-07-06 20.2 24.0 15.2- 63.0- 6.0 0.7---- 0.0------------
1994-07-05 21.8 28.4 12.4- 66.0- 5.3 0.3---- 0.0------------
1994-07-04 21.9 30.7 12.2- 59.3- 5.3 1.0---- 0.0------------
1994-07-03 21.3 25.2 11.4- 56.3- 5.7 1.0---- 0.0------------
1994-07-02 18.3 25.3 10.8- 63.0- 5.0 1.0---- 0.0------------
1994-07-01 14.1 17.7 10.1- 80.3- 6.0 1.3---- 0.0------------
1994-06-30 17.1 26.0 13.0- 78.5- 6.7 2.0---- 0.0------------
1994-06-29 22.7 29.0 13.9- 77.3- 5.3 1.0---- 0.0------------
1994-06-28 19.3 24.6 9.4- 77.0- 5.3 1.3---- 0.0------------
1994-06-27 20.1 25.7 12.0- 82.3- 5.7 1.3---- 1.0------------
1994-06-26 18.7 23.5 15.0- 71.3- 6.3 1.7---- 0.0------------
1994-06-25 12.4 18.3 8.0- 66.3- 6.0 1.3---- 0.0------------
1994-06-24 12.2 13.8 6.3- 83.0- 6.7 1.7---- 0.0------------
1994-06-23 13.8 16.1 6.9- 78.3- 6.3 1.7---- 0.6------------
1994-06-22 15.2 18.2 8.5- 92.0- 7.0 1.7---- 0.8------------
1994-06-21 12.3 15.2 7.8- 81.5- 7.0 2.0---- 1.4------------
1994-06-20 13.4 21.1 6.8- 80.8- 7.7 1.7---- 1.0------------
1994-06-19 9.5 12.2 5.8- 95.3- 7.3 1.7---- 2.2------------
1994-06-18 10.1 11.0 5.5- 86.5- 7.7 2.7---- 0.0------------
1994-06-17 9.8 12.0 5.3- 86.3- 6.7 2.3---- 1.0------------
1994-06-16 10.5 13.4 9.2- 87.0- 7.3 2.3---- 0.0------------
230.4 ms

 

Źródłem pochodzenia danych jest Instytut Meteorologii i Gospodarki Wodnej – Państwowy Instytut Badawczy. Dane Instytutu Meteorologii i Gospodarki Wodnej – Państwowego Instytutu Badawczego zostały przetworzone.

Dane źródłowe można odnaleźć na stronie https://dane.imgw.pl